SUBRM HECA-HEAX
Flight info
| Callsign | SUBRM |
|---|---|
| Flight time | 0h 38m |
| Altitude | 16000 |
| Route | CVO L617 NOZ V604 ALPAM |
| Aircraft | BE9L/L-SBDFGRY/SB1 |
Departure
| Time | 2026-04-28 18:21 |
|---|---|
| Airport | Cairo International Airport (HECA) |
Arrival
| Time | 2026-04-28 19:00 |
|---|---|
| Airport | Alexandria International Airport (HEAX) |
| Time | Latitude | Longitude | Altitude | Speed | Heading |
|---|---|---|---|---|---|
| 2026-04-28 17:53 | 30.12805 | 31.40525 | 381 ft | 0 kts | 253° |
| 2026-04-28 18:11 | 30.12809 | 31.40519 | 381 ft | 2 kts | 358° |
| 2026-04-28 18:12 | 30.12818 | 31.40556 | 381 ft | 8 kts | 91° |
| 2026-04-28 18:12 | 30.12837 | 31.40583 | 381 ft | 4 kts | 349° |
| 2026-04-28 18:12 | 30.12877 | 31.40568 | 381 ft | 7 kts | 353° |
| 2026-04-28 18:12 | 30.12914 | 31.40612 | 381 ft | 10 kts | 75° |
| 2026-04-28 18:13 | 30.12931 | 31.40688 | 381 ft | 7 kts | 72° |
| 2026-04-28 18:13 | 30.12960 | 31.40707 | 381 ft | 4 kts | 349° |
| 2026-04-28 18:13 | 30.12992 | 31.40696 | 381 ft | 6 kts | 342° |
| 2026-04-28 18:13 | 30.13044 | 31.40677 | 381 ft | 9 kts | 342° |
| 2026-04-28 18:14 | 30.13113 | 31.40653 | 381 ft | 10 kts | 339° |
| 2026-04-28 18:14 | 30.13166 | 31.40596 | 381 ft | 11 kts | 296° |
| 2026-04-28 18:14 | 30.13201 | 31.40511 | 381 ft | 12 kts | 294° |
| 2026-04-28 18:14 | 30.13233 | 31.40417 | 381 ft | 12 kts | 289° |
| 2026-04-28 18:15 | 30.13258 | 31.40316 | 381 ft | 13 kts | 284° |
| 2026-04-28 18:15 | 30.13279 | 31.40208 | 381 ft | 14 kts | 281° |
| 2026-04-28 18:15 | 30.13277 | 31.40095 | 381 ft | 15 kts | 239° |
| 2026-04-28 18:15 | 30.13197 | 31.39988 | 381 ft | 17 kts | 227° |
| 2026-04-28 18:16 | 30.13120 | 31.39887 | 381 ft | 14 kts | 231° |
| 2026-04-28 18:16 | 30.13060 | 31.39806 | 381 ft | 12 kts | 229° |
| 2026-04-28 18:16 | 30.13006 | 31.39731 | 381 ft | 11 kts | 230° |
| 2026-04-28 18:16 | 30.12952 | 31.39661 | 381 ft | 12 kts | 228° |
| 2026-04-28 18:17 | 30.12892 | 31.39580 | 381 ft | 13 kts | 229° |
| 2026-04-28 18:17 | 30.12827 | 31.39493 | 381 ft | 14 kts | 230° |
| 2026-04-28 18:17 | 30.12762 | 31.39405 | 381 ft | 14 kts | 229° |
| 2026-04-28 18:17 | 30.12697 | 31.39319 | 381 ft | 14 kts | 230° |
| 2026-04-28 18:18 | 30.12633 | 31.39231 | 381 ft | 14 kts | 230° |
| 2026-04-28 18:18 | 30.12567 | 31.39143 | 381 ft | 14 kts | 229° |
| 2026-04-28 18:18 | 30.12501 | 31.39055 | 380 ft | 14 kts | 231° |
| 2026-04-28 18:18 | 30.12459 | 31.38994 | 380 ft | 14 kts | 229° |
| 2026-04-28 18:19 | 30.12391 | 31.38892 | 380 ft | 6 kts | 265° |
| 2026-04-28 18:19 | 30.12410 | 31.38856 | 380 ft | 4 kts | 333° |
| 2026-04-28 18:19 | 30.12443 | 31.38847 | 380 ft | 6 kts | 13° |
| 2026-04-28 18:19 | 30.12490 | 31.38863 | 380 ft | 7 kts | 16° |
| 2026-04-28 18:20 | 30.12541 | 31.38884 | 380 ft | 7 kts | 20° |
| 2026-04-28 18:20 | 30.12584 | 31.38886 | 380 ft | 5 kts | 352° |
| 2026-04-28 18:20 | 30.12616 | 31.38888 | 380 ft | 4 kts | 38° |
| 2026-04-28 18:20 | 30.12621 | 31.38894 | 380 ft | 0 kts | 50° |
| 2026-04-28 18:21 | 30.12662 | 31.38949 | 380 ft | 43 kts | 48° |
| 2026-04-28 18:21 | 30.13039 | 31.39456 | 381 ft | 112 kts | 48° |
| 2026-04-28 18:21 | 30.13624 | 31.40248 | 471 ft | 132 kts | 44° |
| 2026-04-28 18:21 | 30.14278 | 31.40903 | 932 ft | 127 kts | 21° |
| 2026-04-28 18:22 | 30.15167 | 31.41071 | 1385 ft | 133 kts | 355° |
| 2026-04-28 18:22 | 30.16022 | 31.40732 | 1915 ft | 136 kts | 328° |
| 2026-04-28 18:22 | 30.16793 | 31.40012 | 2237 ft | 149 kts | 324° |
| 2026-04-28 18:22 | 30.17639 | 31.39218 | 2559 ft | 160 kts | 324° |
| 2026-04-28 18:23 | 30.18531 | 31.38391 | 2878 ft | 168 kts | 324° |
| 2026-04-28 18:23 | 30.19474 | 31.37531 | 3189 ft | 174 kts | 324° |
| 2026-04-28 18:23 | 30.20432 | 31.36665 | 3485 ft | 178 kts | 324° |
| 2026-04-28 18:23 | 30.21419 | 31.35778 | 3783 ft | 181 kts | 324° |
| 2026-04-28 18:24 | 30.22422 | 31.34884 | 4086 ft | 184 kts | 324° |
| 2026-04-28 18:24 | 30.23101 | 31.34281 | 4291 ft | 185 kts | 324° |
| 2026-04-28 18:24 | 30.24474 | 31.33077 | 4656 ft | 188 kts | 324° |
| 2026-04-28 18:24 | 30.25546 | 31.32149 | 4899 ft | 191 kts | 324° |
| 2026-04-28 18:25 | 30.26615 | 31.31234 | 5141 ft | 193 kts | 324° |
| 2026-04-28 18:25 | 30.27706 | 31.30313 | 5400 ft | 195 kts | 324° |
| 2026-04-28 18:25 | 30.28803 | 31.29390 | 5645 ft | 196 kts | 324° |
| 2026-04-28 18:26 | 30.31037 | 31.27539 | 6140 ft | 198 kts | 324° |
| 2026-04-28 18:26 | 30.32167 | 31.26609 | 6401 ft | 198 kts | 324° |
| 2026-04-28 18:26 | 30.33288 | 31.25696 | 6660 ft | 199 kts | 324° |
| 2026-04-28 18:26 | 30.34312 | 31.24610 | 6902 ft | 199 kts | 311° |
| 2026-04-28 18:27 | 30.35256 | 31.23460 | 7144 ft | 199 kts | 313° |
| 2026-04-28 18:27 | 30.36202 | 31.22285 | 7405 ft | 199 kts | 312° |
| 2026-04-28 18:27 | 30.37126 | 31.21142 | 7631 ft | 180 kts | 311° |
| 2026-04-28 18:27 | 30.37963 | 31.20092 | 7859 ft | 178 kts | 311° |
| 2026-04-28 18:28 | 30.38814 | 31.19032 | 8118 ft | 183 kts | 311° |
| 2026-04-28 18:28 | 30.39691 | 31.17937 | 8371 ft | 187 kts | 311° |
| 2026-04-28 18:28 | 30.40583 | 31.16824 | 8623 ft | 190 kts | 311° |
| 2026-04-28 18:28 | 30.41489 | 31.15694 | 8879 ft | 192 kts | 311° |
| 2026-04-28 18:29 | 30.42409 | 31.14548 | 9134 ft | 194 kts | 310° |
| 2026-04-28 18:29 | 30.43330 | 31.13396 | 9378 ft | 196 kts | 310° |
| 2026-04-28 18:29 | 30.44265 | 31.12231 | 9629 ft | 197 kts | 310° |
| 2026-04-28 18:29 | 30.45189 | 31.11076 | 9873 ft | 198 kts | 310° |
| 2026-04-28 18:30 | 30.46129 | 31.09896 | 10125 ft | 198 kts | 310° |
| 2026-04-28 18:30 | 30.46444 | 31.09502 | 10209 ft | 198 kts | 310° |
| 2026-04-28 18:30 | 30.47994 | 31.07566 | 10607 ft | 198 kts | 309° |
| 2026-04-28 18:30 | 30.48935 | 31.06387 | 10871 ft | 197 kts | 309° |
| 2026-04-28 18:31 | 30.49863 | 31.05224 | 11111 ft | 196 kts | 309° |
| 2026-04-28 18:31 | 30.50788 | 31.04064 | 11357 ft | 196 kts | 309° |
| 2026-04-28 18:31 | 30.51701 | 31.02919 | 11590 ft | 195 kts | 309° |
| 2026-04-28 18:31 | 30.52629 | 31.01756 | 11836 ft | 195 kts | 309° |
| 2026-04-28 18:32 | 30.53551 | 31.00600 | 12088 ft | 194 kts | 309° |
| 2026-04-28 18:32 | 30.54459 | 30.99460 | 12334 ft | 193 kts | 309° |
| 2026-04-28 18:32 | 30.55381 | 30.98305 | 12594 ft | 193 kts | 309° |
| 2026-04-28 18:32 | 30.56288 | 30.97165 | 12846 ft | 192 kts | 309° |
| 2026-04-28 18:33 | 30.57194 | 30.96028 | 13082 ft | 191 kts | 309° |
| 2026-04-28 18:33 | 30.58086 | 30.94909 | 13317 ft | 190 kts | 309° |
| 2026-04-28 18:33 | 30.58987 | 30.93777 | 13547 ft | 189 kts | 309° |
| 2026-04-28 18:33 | 30.59871 | 30.92665 | 13782 ft | 187 kts | 309° |
| 2026-04-28 18:34 | 30.60746 | 30.91564 | 14036 ft | 186 kts | 309° |
| 2026-04-28 18:34 | 30.61630 | 30.90453 | 14281 ft | 185 kts | 309° |
| 2026-04-28 18:34 | 30.62503 | 30.89357 | 14537 ft | 184 kts | 309° |
| 2026-04-28 18:34 | 30.63360 | 30.88280 | 14771 ft | 183 kts | 309° |
| 2026-04-28 18:35 | 30.64222 | 30.87195 | 15015 ft | 182 kts | 309° |
| 2026-04-28 18:35 | 30.65082 | 30.86113 | 15254 ft | 181 kts | 309° |
| 2026-04-28 18:35 | 30.65926 | 30.85051 | 15496 ft | 179 kts | 309° |
| 2026-04-28 18:35 | 30.66772 | 30.83986 | 15740 ft | 178 kts | 309° |
| 2026-04-28 18:36 | 30.67612 | 30.82925 | 15976 ft | 178 kts | 308° |
| 2026-04-28 18:36 | 30.68461 | 30.81853 | 16029 ft | 186 kts | 309° |
| 2026-04-28 18:36 | 30.69358 | 30.80722 | 16032 ft | 195 kts | 309° |
| 2026-04-28 18:36 | 30.70309 | 30.79522 | 16031 ft | 203 kts | 309° |
| 2026-04-28 18:37 | 30.71278 | 30.78301 | 16030 ft | 208 kts | 309° |
| 2026-04-28 18:37 | 30.72258 | 30.77066 | 16030 ft | 212 kts | 309° |
| 2026-04-28 18:37 | 30.73268 | 30.75792 | 16017 ft | 211 kts | 309° |
| 2026-04-28 18:37 | 30.74250 | 30.74556 | 16024 ft | 205 kts | 309° |
| 2026-04-28 18:38 | 30.75249 | 30.73291 | 16044 ft | 218 kts | 309° |
| 2026-04-28 18:38 | 30.76301 | 30.71960 | 16041 ft | 228 kts | 310° |
| 2026-04-28 18:38 | 30.77384 | 30.70597 | 16033 ft | 233 kts | 309° |
| 2026-04-28 18:38 | 30.78486 | 30.69202 | 16035 ft | 236 kts | 309° |
| 2026-04-28 18:39 | 30.79601 | 30.67795 | 16034 ft | 238 kts | 309° |
| 2026-04-28 18:39 | 30.80732 | 30.66362 | 16032 ft | 240 kts | 309° |
| 2026-04-28 18:39 | 30.81869 | 30.64924 | 16034 ft | 241 kts | 309° |
| 2026-04-28 18:39 | 30.83007 | 30.63485 | 16034 ft | 242 kts | 310° |
| 2026-04-28 18:40 | 30.84143 | 30.62046 | 16037 ft | 242 kts | 309° |
| 2026-04-28 18:40 | 30.85287 | 30.60600 | 16028 ft | 243 kts | 310° |
| 2026-04-28 18:40 | 30.86428 | 30.59151 | 16035 ft | 243 kts | 310° |
| 2026-04-28 18:40 | 30.87574 | 30.57696 | 16038 ft | 244 kts | 310° |
| 2026-04-28 18:41 | 30.88725 | 30.56237 | 16039 ft | 244 kts | 310° |
| 2026-04-28 18:41 | 30.89869 | 30.54786 | 16026 ft | 244 kts | 310° |
| 2026-04-28 18:41 | 30.91014 | 30.53336 | 16031 ft | 244 kts | 309° |
| 2026-04-28 18:41 | 30.92161 | 30.51876 | 16034 ft | 244 kts | 310° |
| 2026-04-28 18:42 | 30.93316 | 30.50410 | 16035 ft | 243 kts | 310° |
| 2026-04-28 18:42 | 30.94455 | 30.48963 | 16041 ft | 243 kts | 309° |
| 2026-04-28 18:42 | 30.95602 | 30.47504 | 16039 ft | 243 kts | 309° |
| 2026-04-28 18:42 | 30.96744 | 30.46050 | 16038 ft | 244 kts | 310° |
| 2026-04-28 18:43 | 30.97879 | 30.44603 | 16030 ft | 244 kts | 309° |
| 2026-04-28 18:43 | 30.99017 | 30.43152 | 16028 ft | 243 kts | 310° |
| 2026-04-28 18:43 | 31.00158 | 30.41700 | 16034 ft | 243 kts | 310° |
| 2026-04-28 18:43 | 31.01315 | 30.40227 | 16041 ft | 243 kts | 310° |
| 2026-04-28 18:44 | 31.02443 | 30.38756 | 16033 ft | 243 kts | 306° |
| 2026-04-28 18:44 | 31.03476 | 30.35099 | 16036 ft | 240 kts | 283° |
| 2026-04-28 18:44 | 31.03799 | 30.33213 | 16040 ft | 239 kts | 281° |
| 2026-04-28 18:45 | 31.04124 | 30.31330 | 16035 ft | 233 kts | 281° |
| 2026-04-28 18:45 | 31.04428 | 30.29484 | 16031 ft | 228 kts | 281° |
| 2026-04-28 18:45 | 31.04723 | 30.27700 | 15978 ft | 224 kts | 281° |
| 2026-04-28 18:45 | 31.05022 | 30.25884 | 15418 ft | 234 kts | 281° |
| 2026-04-28 18:46 | 31.05338 | 30.23987 | 14507 ft | 248 kts | 281° |
| 2026-04-28 18:46 | 31.05663 | 30.22009 | 13727 ft | 252 kts | 281° |
| 2026-04-28 18:46 | 31.05986 | 30.20052 | 13108 ft | 249 kts | 281° |
| 2026-04-28 18:46 | 31.06312 | 30.18070 | 12478 ft | 246 kts | 281° |
| 2026-04-28 18:47 | 31.06626 | 30.16155 | 11732 ft | 243 kts | 281° |
| 2026-04-28 18:47 | 31.06944 | 30.14226 | 10911 ft | 243 kts | 281° |
| 2026-04-28 18:47 | 31.07255 | 30.12321 | 10134 ft | 241 kts | 281° |
| 2026-04-28 18:47 | 31.07568 | 30.10404 | 9341 ft | 240 kts | 281° |
| 2026-04-28 18:48 | 31.07874 | 30.08532 | 8614 ft | 236 kts | 281° |
| 2026-04-28 18:48 | 31.08174 | 30.06688 | 7903 ft | 231 kts | 281° |
| 2026-04-28 18:48 | 31.08468 | 30.04879 | 7163 ft | 229 kts | 281° |
| 2026-04-28 18:48 | 31.08759 | 30.03097 | 6442 ft | 225 kts | 281° |
| 2026-04-28 18:49 | 31.08754 | 30.01298 | 5693 ft | 227 kts | 254° |
| 2026-04-28 18:49 | 31.08529 | 30.00754 | 5442 ft | 230 kts | 241° |
| 2026-04-28 18:49 | 31.06219 | 29.99345 | 4371 ft | 235 kts | 197° |
| 2026-04-28 18:49 | 31.04645 | 29.98755 | 3642 ft | 249 kts | 201° |
| 2026-04-28 18:50 | 31.02967 | 29.98144 | 3562 ft | 251 kts | 202° |
| 2026-04-28 18:50 | 31.01373 | 29.97517 | 3547 ft | 235 kts | 201° |
| 2026-04-28 18:50 | 30.99865 | 29.96933 | 3526 ft | 221 kts | 202° |
| 2026-04-28 18:50 | 30.98432 | 29.96369 | 3458 ft | 215 kts | 202° |
| 2026-04-28 18:51 | 30.97003 | 29.95807 | 3303 ft | 214 kts | 202° |
| 2026-04-28 18:51 | 30.95593 | 29.95250 | 3122 ft | 215 kts | 202° |
| 2026-04-28 18:51 | 30.94186 | 29.94699 | 3122 ft | 210 kts | 201° |
| 2026-04-28 18:51 | 30.92801 | 29.94158 | 3141 ft | 213 kts | 202° |
| 2026-04-28 18:52 | 30.91379 | 29.93599 | 3135 ft | 212 kts | 202° |
| 2026-04-28 18:52 | 30.89981 | 29.93052 | 3138 ft | 213 kts | 202° |
| 2026-04-28 18:52 | 30.88548 | 29.92488 | 3011 ft | 217 kts | 202° |
| 2026-04-28 18:52 | 30.87119 | 29.91928 | 2829 ft | 218 kts | 201° |
| 2026-04-28 18:53 | 30.85702 | 29.91374 | 2642 ft | 211 kts | 201° |
| 2026-04-28 18:53 | 30.84298 | 29.90824 | 2472 ft | 213 kts | 201° |
| 2026-04-28 18:53 | 30.82882 | 29.90271 | 2294 ft | 214 kts | 201° |
| 2026-04-28 18:53 | 30.81467 | 29.89715 | 2115 ft | 215 kts | 200° |
| 2026-04-28 18:54 | 30.80112 | 29.89050 | 1994 ft | 210 kts | 220° |
| 2026-04-28 18:54 | 30.79219 | 29.87773 | 2024 ft | 204 kts | 238° |
| 2026-04-28 18:54 | 30.78350 | 29.86463 | 2010 ft | 203 kts | 237° |
| 2026-04-28 18:54 | 30.77510 | 29.85158 | 2010 ft | 201 kts | 236° |
| 2026-04-28 18:55 | 30.76858 | 29.83764 | 1997 ft | 193 kts | 265° |
| 2026-04-28 18:55 | 30.76966 | 29.82759 | 2014 ft | 185 kts | 297° |
| 2026-04-28 18:55 | 30.78123 | 29.81378 | 2025 ft | 182 kts | 323° |
| 2026-04-28 18:55 | 30.79115 | 29.80441 | 2015 ft | 184 kts | 324° |
| 2026-04-28 18:56 | 30.80141 | 29.79535 | 2015 ft | 185 kts | 324° |
| 2026-04-28 18:56 | 30.81167 | 29.78631 | 2013 ft | 186 kts | 325° |
| 2026-04-28 18:56 | 30.82214 | 29.77710 | 2009 ft | 182 kts | 324° |
| 2026-04-28 18:56 | 30.83098 | 29.76923 | 1854 ft | 144 kts | 325° |
| 2026-04-28 18:57 | 30.83865 | 29.76253 | 1711 ft | 131 kts | 326° |
| 2026-04-28 18:57 | 30.84578 | 29.75633 | 1580 ft | 124 kts | 326° |
| 2026-04-28 18:57 | 30.85248 | 29.75045 | 1405 ft | 116 kts | 326° |
| 2026-04-28 18:57 | 30.85871 | 29.74498 | 1248 ft | 111 kts | 326° |
| 2026-04-28 18:58 | 30.86509 | 29.73940 | 1125 ft | 116 kts | 326° |
| 2026-04-28 18:58 | 30.87159 | 29.73370 | 985 ft | 120 kts | 326° |
| 2026-04-28 18:58 | 30.87841 | 29.72771 | 824 ft | 123 kts | 326° |
| 2026-04-28 18:58 | 30.88527 | 29.72178 | 664 ft | 124 kts | 326° |
| 2026-04-28 18:59 | 30.89205 | 29.71547 | 507 ft | 126 kts | 325° |
| 2026-04-28 18:59 | 30.89901 | 29.70952 | 369 ft | 121 kts | 327° |
| 2026-04-28 18:59 | 30.90579 | 29.70370 | 197 ft | 120 kts | 328° |
| 2026-04-28 18:59 | 30.91161 | 29.69851 | 177 ft | 90 kts | 325° |
| 2026-04-28 19:00 | 30.91600 | 29.69473 | 174 ft | 71 kts | 323° |
| 2026-04-28 19:00 | 30.91887 | 29.69225 | 174 ft | 31 kts | 334° |
| 2026-04-28 19:00 | 30.91986 | 29.69167 | 174 ft | 3 kts | 4° |
| 2026-04-28 19:00 | 30.91994 | 29.69169 | 174 ft | 0 kts | 34° |
| 2026-04-28 19:01 | 30.91995 | 29.69170 | 174 ft | 0 kts | 36° |
| 2026-04-28 19:01 | 30.92007 | 29.69188 | 174 ft | 6 kts | 54° |
| 2026-04-28 19:01 | 30.92044 | 29.69248 | 174 ft | 10 kts | 56° |
| 2026-04-28 19:01 | 30.92091 | 29.69314 | 174 ft | 7 kts | 26° |
| 2026-04-28 19:02 | 30.92143 | 29.69300 | 174 ft | 12 kts | 322° |
| 2026-04-28 19:02 | 30.92228 | 29.69228 | 174 ft | 18 kts | 325° |